createdAt,value
2016-08-22T00:00:37.971Z,0
2016-08-22T00:01:40.081Z,0
2016-08-22T00:02:38.658Z,0
2016-08-22T00:03:38.645Z,0
2016-08-22T00:04:38.647Z,0
2016-08-22T00:05:37.924Z,0
2016-08-22T00:06:38.630Z,0
2016-08-22T00:07:38.614Z,0
2016-08-22T00:08:39.312Z,0
2016-08-22T00:09:37.889Z,0
2016-08-22T00:10:39.287Z,0
2016-08-22T00:11:38.591Z,0
2016-08-22T00:12:39.266Z,0
2016-08-22T00:13:39.255Z,0
2016-08-22T00:14:39.267Z,0
2016-08-22T00:15:37.822Z,0
2016-08-22T00:16:38.524Z,0
2016-08-22T00:17:37.826Z,0
2016-08-22T00:18:37.805Z,0
2016-08-22T00:19:39.209Z,0
2016-08-22T00:20:38.491Z,0
2016-08-22T00:21:39.184Z,0
2016-08-22T00:22:39.228Z,0
2016-08-22T00:23:37.780Z,0
2016-08-22T00:24:38.451Z,0
2016-08-22T00:25:37.731Z,0
2016-08-22T00:26:37.731Z,0
2016-08-22T00:27:39.828Z,0
2016-08-22T00:28:39.132Z,0
2016-08-22T00:29:37.698Z,0
2016-08-22T00:30:38.387Z,0
2016-08-22T00:31:37.678Z,0
2016-08-22T00:32:39.796Z,0
2016-08-22T00:33:37.654Z,0
2016-08-22T00:34:38.353Z,0
2016-08-22T00:35:37.639Z,0
2016-08-22T00:36:37.627Z,0
2016-08-22T00:37:39.038Z,0
2016-08-22T00:38:38.338Z,0
2016-08-22T00:39:38.307Z,0
2016-08-22T00:40:37.592Z,0
2016-08-22T00:41:38.291Z,0
2016-08-22T00:42:39.696Z,0
2016-08-22T00:43:38.271Z,0
2016-08-22T00:44:38.261Z,0
2016-08-22T00:45:38.261Z,0
2016-08-22T00:46:38.248Z,0
2016-08-22T00:47:38.951Z,0
2016-08-22T00:48:38.226Z,0
2016-08-22T00:49:38.219Z,0
2016-08-22T00:50:38.914Z,0
2016-08-22T00:51:38.906Z,0
2016-08-22T00:52:38.893Z,0
2016-08-22T00:53:39.588Z,0
2016-08-22T00:54:37.459Z,0
2016-08-22T00:55:38.868Z,0
2016-08-22T00:56:38.142Z,0
2016-08-22T00:57:37.430Z,0
2016-08-22T00:58:38.838Z,0
2016-08-22T00:59:38.819Z,0
2016-08-22T01:00:38.113Z,0
2016-08-22T01:01:38.808Z,0
2016-08-22T01:02:37.380Z,0
2016-08-22T01:03:38.079Z,0
2016-08-22T01:04:37.366Z,0
2016-08-22T01:05:38.063Z,0
2016-08-22T01:06:38.763Z,0
2016-08-22T01:07:37.347Z,0
2016-08-22T01:08:38.741Z,0
2016-08-22T01:09:38.032Z,0
2016-08-22T01:10:38.024Z,0
2016-08-22T01:11:38.060Z,0
2016-08-22T01:12:37.993Z,0
2016-08-22T01:13:37.978Z,0
2016-08-22T01:14:37.976Z,0
2016-08-22T01:15:37.967Z,0
2016-08-22T01:16:37.952Z,0
2016-08-22T01:17:37.952Z,0
2016-08-22T01:18:38.638Z,0
2016-08-22T01:19:37.216Z,0
2016-08-22T01:20:37.921Z,0
2016-08-22T01:21:37.903Z,0
2016-08-22T01:22:37.897Z,0
2016-08-22T01:23:37.179Z,0
2016-08-22T01:24:38.582Z,0
2016-08-22T01:25:38.573Z,0
2016-08-22T01:26:38.587Z,0
2016-08-22T01:27:37.138Z,0
2016-08-22T01:28:37.129Z,0
2016-08-22T01:29:37.832Z,0
2016-08-22T01:30:38.528Z,0
2016-08-22T01:31:38.509Z,0
2016-08-22T01:32:37.794Z,0
2016-08-22T01:33:38.500Z,0
2016-08-22T01:34:37.784Z,0
2016-08-22T01:35:37.772Z,0
2016-08-22T01:36:37.045Z,0
2016-08-22T01:37:37.747Z,0
2016-08-22T01:38:38.452Z,0
2016-08-22T01:39:38.445Z,0
2016-08-22T01:40:37.725Z,0
2016-08-22T01:41:37.006Z,0
2016-08-22T01:42:38.452Z,0
2016-08-22T01:43:38.398Z,0
2016-08-22T01:44:37.687Z,0
2016-08-22T01:45:38.384Z,0
2016-08-22T01:46:39.785Z,0
2016-08-22T01:47:38.372Z,0
2016-08-22T01:48:38.369Z,0
2016-08-22T01:49:36.924Z,0
2016-08-22T01:50:37.818Z,0
2016-08-22T01:51:38.342Z,0
2016-08-22T01:52:37.605Z,0
2016-08-22T01:53:39.010Z,0
2016-08-22T01:54:38.302Z,0
2016-08-22T01:55:37.625Z,0
2016-08-22T01:56:38.270Z,0
2016-08-22T01:57:36.850Z,0
2016-08-22T01:58:38.252Z,0
2016-08-22T01:59:37.543Z,0
2016-08-22T02:00:37.523Z,0
2016-08-22T02:01:36.802Z,0
2016-08-22T02:02:37.503Z,0
2016-08-22T02:03:38.213Z,0
2016-08-22T02:04:38.193Z,0
2016-08-22T02:05:37.530Z,0
2016-08-22T02:06:37.529Z,0
2016-08-22T02:07:37.456Z,0
2016-08-22T02:08:38.159Z,0
2016-08-22T02:09:37.488Z,0
2016-08-22T02:10:37.426Z,0
2016-08-22T02:11:36.726Z,0
2016-08-22T02:12:38.828Z,0
2016-08-22T02:13:37.394Z,0
2016-08-22T02:14:37.390Z,0
2016-08-22T02:15:36.674Z,0
2016-08-22T02:16:36.658Z,0
2016-08-22T02:17:38.071Z,0
2016-08-22T02:18:36.642Z,0
2016-08-22T02:19:36.629Z,0
2016-08-22T02:20:38.042Z,0
2016-08-22T02:21:37.314Z,0
2016-08-22T02:22:37.313Z,0
2016-08-22T02:23:38.004Z,0
2016-08-22T02:24:37.283Z,0
2016-08-22T02:25:38.694Z,0
2016-08-22T02:26:37.264Z,0
2016-08-22T02:27:37.268Z,0
2016-08-22T02:28:36.537Z,0
2016-08-22T02:29:36.542Z,0
2016-08-22T02:30:36.540Z,0
2016-08-22T02:31:37.220Z,0
2016-08-22T02:32:38.667Z,0
2016-08-22T02:33:37.953Z,0
2016-08-22T02:34:36.483Z,0
2016-08-22T02:35:36.469Z,0
2016-08-22T02:36:37.870Z,0
2016-08-22T02:37:37.158Z,0
2016-08-22T02:38:36.442Z,0
2016-08-22T02:39:37.137Z,0
2016-08-22T02:40:39.254Z,0
2016-08-22T02:41:37.112Z,0
2016-08-22T02:42:37.833Z,0
2016-08-22T02:43:37.111Z,0
2016-08-22T02:44:36.410Z,0
2016-08-22T02:45:36.368Z,0
2016-08-22T02:46:37.069Z,0
2016-08-22T02:47:36.344Z,0
2016-08-22T02:48:36.337Z,0
2016-08-22T02:49:37.757Z,0
2016-08-22T02:50:37.023Z,0
2016-08-22T02:51:37.038Z,0
2016-08-22T02:52:37.712Z,0
2016-08-22T02:53:36.993Z,0
2016-08-22T02:54:36.990Z,0
2016-08-22T02:55:37.681Z,0
2016-08-22T02:56:36.272Z,0
2016-08-22T02:57:37.662Z,0
2016-08-22T02:58:36.237Z,0
2016-08-22T02:59:39.070Z,0
2016-08-22T03:00:37.631Z,0
2016-08-22T03:01:37.623Z,0
2016-08-22T03:02:36.906Z,0
2016-08-22T03:03:37.617Z,0
2016-08-22T03:04:36.185Z,0
2016-08-22T03:05:37.579Z,0
2016-08-22T03:06:38.310Z,0
2016-08-22T03:07:36.919Z,0
2016-08-22T03:08:38.992Z,0
2016-08-22T03:09:37.569Z,0
2016-08-22T03:10:36.123Z,0
2016-08-22T03:11:38.230Z,0
2016-08-22T03:12:36.811Z,0
2016-08-22T03:13:36.799Z,0
2016-08-22T03:14:36.782Z,0
2016-08-22T03:15:37.519Z,0
2016-08-22T03:16:37.494Z,0
2016-08-22T03:17:36.043Z,0
2016-08-22T03:18:37.470Z,0
2016-08-22T03:19:36.745Z,0
2016-08-22T03:20:37.435Z,0
2016-08-22T03:21:37.440Z,0
2016-08-22T03:22:38.136Z,0
2016-08-22T03:23:36.004Z,0
2016-08-22T03:24:36.692Z,0
2016-08-22T03:25:35.979Z,0
2016-08-22T03:26:38.077Z,0
2016-08-22T03:27:35.949Z,0
2016-08-22T03:28:37.353Z,0
2016-08-22T03:29:36.637Z,0
2016-08-22T03:30:37.403Z,0
2016-08-22T03:31:35.960Z,0
2016-08-22T03:32:38.029Z,0
2016-08-22T03:33:36.601Z,0
2016-08-22T03:34:37.308Z,0
2016-08-22T03:35:37.300Z,0
2016-08-22T03:36:37.997Z,0
2016-08-22T03:37:35.844Z,0
2016-08-22T03:38:37.251Z,0
2016-08-22T03:39:36.538Z,0
2016-08-22T03:40:37.957Z,0
2016-08-22T03:41:37.222Z,0
2016-08-22T03:42:37.949Z,0
2016-08-22T03:43:37.207Z,0
2016-08-22T03:44:37.903Z,0
2016-08-22T03:45:36.471Z,0
2016-08-22T03:46:38.596Z,0
2016-08-22T03:47:37.166Z,0
2016-08-22T03:48:36.454Z,0
2016-08-22T03:49:37.851Z,0
2016-08-22T03:50:37.539Z,0
2016-08-22T03:51:36.413Z,0
2016-08-22T03:52:37.112Z,0
2016-08-22T03:53:37.106Z,0
2016-08-22T03:54:37.797Z,0
2016-08-22T03:55:36.394Z,0
2016-08-22T03:56:36.369Z,0
2016-08-22T03:57:36.351Z,0
2016-08-22T03:58:36.350Z,0
2016-08-22T03:59:35.677Z,0
2016-08-22T04:00:37.030Z,0
2016-08-22T04:01:36.315Z,0
2016-08-22T04:02:36.325Z,0
2016-08-22T04:03:35.584Z,0
2016-08-22T04:04:37.735Z,0
2016-08-22T04:05:37.705Z,0
2016-08-22T04:06:37.687Z,0
2016-08-22T04:07:36.966Z,0
2016-08-22T04:08:37.665Z,0
2016-08-22T04:09:36.244Z,0
2016-08-22T04:10:35.517Z,0
2016-08-22T04:11:36.226Z,0
2016-08-22T04:12:37.638Z,0
2016-08-22T04:13:36.193Z,0
2016-08-22T04:14:36.195Z,0
2016-08-22T04:15:36.169Z,0
2016-08-22T04:16:35.449Z,0
2016-08-22T04:17:36.161Z,0
2016-08-22T04:18:36.142Z,0
2016-08-22T04:19:36.127Z,0
2016-08-22T04:20:37.540Z,5
2016-08-22T04:21:36.110Z,5
2016-08-22T04:22:37.568Z,5
2016-08-22T04:23:36.829Z,5
2016-08-22T04:24:36.803Z,5
2016-08-22T04:25:37.493Z,5
2016-08-22T04:26:36.066Z,5
2016-08-22T04:27:36.067Z,5
2016-08-22T04:28:36.042Z,5
2016-08-22T04:29:35.321Z,5
2016-08-22T04:30:36.745Z,5
2016-08-22T04:31:36.046Z,5
2016-08-22T04:32:36.708Z,5
2016-08-22T04:33:36.698Z,5
2016-08-22T04:34:35.988Z,5
2016-08-22T04:35:35.974Z,5
2016-08-22T04:36:36.167Z,5
2016-08-22T04:37:36.669Z,5
2016-08-22T04:38:36.666Z,5
2016-08-22T04:39:36.649Z,5
2016-08-22T04:40:36.639Z,5
2016-08-22T04:41:35.928Z,5
2016-08-22T04:42:37.342Z,5
2016-08-22T04:43:36.608Z,10
2016-08-22T04:44:37.303Z,10
2016-08-22T04:45:35.181Z,10
2016-08-22T04:46:35.877Z,10
2016-08-22T04:47:37.264Z,10
2016-08-22T04:48:37.267Z,10
2016-08-22T04:49:36.546Z,10
2016-08-22T04:50:37.249Z,10
2016-08-22T04:51:37.232Z,10
2016-08-22T04:52:35.097Z,10
2016-08-22T04:53:37.223Z,10
2016-08-22T04:54:35.786Z,10
2016-08-22T04:55:36.495Z,10
2016-08-22T04:56:37.183Z,10
2016-08-22T04:57:35.760Z,10
2016-08-22T04:58:36.477Z,10
2016-08-22T04:59:37.155Z,10
2016-08-22T05:00:35.021Z,10
2016-08-22T05:01:37.190Z,10
2016-08-22T05:02:37.864Z,15
2016-08-22T05:03:35.702Z,15
2016-08-22T05:04:36.415Z,15
2016-08-22T05:05:35.677Z,15
2016-08-22T05:06:34.959Z,20
2016-08-22T05:07:36.361Z,20
2016-08-22T05:08:35.647Z,20
2016-08-22T05:09:35.625Z,20
2016-08-22T05:10:36.326Z,20
2016-08-22T05:11:37.033Z,20
2016-08-22T05:12:35.604Z,20
2016-08-22T05:13:37.015Z,20
2016-08-22T05:14:37.007Z,20
2016-08-22T05:15:37.028Z,20
2016-08-22T05:16:35.565Z,20
2016-08-22T05:17:36.255Z,25
2016-08-22T05:18:34.828Z,25
2016-08-22T05:19:37.668Z,25
2016-08-22T05:20:36.934Z,25
2016-08-22T05:21:35.515Z,30
2016-08-22T05:22:34.797Z,30
2016-08-22T05:23:34.802Z,30
2016-08-22T05:24:36.891Z,30
2016-08-22T05:25:36.183Z,30
2016-08-22T05:26:36.173Z,30
2016-08-22T05:27:35.444Z,30
2016-08-22T05:28:36.867Z,35
2016-08-22T05:29:35.438Z,35
2016-08-22T05:30:36.126Z,35
2016-08-22T05:31:34.706Z,35
2016-08-22T05:32:36.826Z,35
2016-08-22T05:33:35.396Z,40
2016-08-22T05:34:36.107Z,35
2016-08-22T05:35:36.863Z,35
2016-08-22T05:36:35.388Z,30
2016-08-22T05:37:36.077Z,30
2016-08-22T05:38:37.477Z,25
2016-08-22T05:39:36.756Z,25
2016-08-22T05:40:36.034Z,30
2016-08-22T05:41:36.019Z,30
2016-08-22T05:42:36.716Z,35
2016-08-22T05:43:36.000Z,40
2016-08-22T05:44:34.577Z,45
2016-08-22T05:45:34.573Z,45
2016-08-22T05:46:35.264Z,45
2016-08-22T05:47:35.965Z,45
2016-08-22T05:48:35.953Z,45
2016-08-22T05:49:35.226Z,45
2016-08-22T05:50:37.057Z,40
2016-08-22T05:51:36.649Z,35
2016-08-22T05:52:35.198Z,35
2016-08-22T05:53:35.902Z,30
2016-08-22T05:54:35.181Z,30
2016-08-22T05:55:36.600Z,30
2016-08-22T05:56:36.690Z,30
2016-08-22T05:57:34.464Z,30
2016-08-22T05:58:35.143Z,30
2016-08-22T05:59:35.142Z,30
2016-08-22T06:00:35.139Z,30
2016-08-22T06:01:35.117Z,30
2016-08-22T06:02:35.109Z,30
2016-08-22T06:03:36.529Z,30
2016-08-22T06:04:35.088Z,30
2016-08-22T06:05:35.084Z,30
2016-08-22T06:06:35.778Z,30
2016-08-22T06:07:34.362Z,30
2016-08-22T06:08:35.761Z,35
2016-08-22T06:09:35.749Z,35
2016-08-22T06:10:34.327Z,35
2016-08-22T06:11:35.727Z,40
2016-08-22T06:12:35.007Z,35
2016-08-22T06:13:35.718Z,35
2016-08-22T06:14:35.699Z,40
2016-08-22T06:15:34.278Z,40
2016-08-22T06:16:34.982Z,40
2016-08-22T06:17:34.969Z,35
2016-08-22T06:18:36.373Z,35
2016-08-22T06:19:36.361Z,35
2016-08-22T06:20:34.960Z,35
2016-08-22T06:21:35.634Z,35
2016-08-22T06:22:34.932Z,35
2016-08-22T06:23:34.905Z,35
2016-08-22T06:24:34.905Z,35
2016-08-22T06:25:36.365Z,30
2016-08-22T06:26:34.172Z,30
2016-08-22T06:27:35.586Z,30
2016-08-22T06:28:35.564Z,25
2016-08-22T06:29:35.552Z,30
2016-08-22T06:30:35.551Z,35
2016-08-22T06:31:35.544Z,35
2016-08-22T06:32:34.819Z,40
2016-08-22T06:33:35.517Z,45
2016-08-22T06:34:34.804Z,45
2016-08-22T06:35:34.791Z,50
2016-08-22T06:36:35.497Z,50
2016-08-22T06:37:36.194Z,50
2016-08-22T06:38:34.066Z,55
2016-08-22T06:39:35.466Z,60
2016-08-22T06:40:35.464Z,65
2016-08-22T06:41:36.148Z,70
2016-08-22T06:42:34.725Z,75
2016-08-22T06:43:35.423Z,80
2016-08-22T06:44:34.001Z,90
2016-08-22T06:45:35.403Z,90
2016-08-22T06:46:35.401Z,85
2016-08-22T06:47:33.997Z,85
2016-08-22T06:48:34.672Z,85
2016-08-22T06:49:35.367Z,80
2016-08-22T06:50:35.358Z,80
2016-08-22T06:51:36.766Z,80
2016-08-22T06:52:35.346Z,75
2016-08-22T06:53:33.922Z,75
2016-08-22T06:54:35.319Z,80
2016-08-22T06:55:35.309Z,85
2016-08-22T06:56:34.595Z,95
2016-08-22T06:57:35.293Z,95
2016-08-22T06:58:34.577Z,100
2016-08-22T06:59:34.569Z,100
2016-08-22T07:00:35.268Z,95
2016-08-22T07:01:35.254Z,95
2016-08-22T07:02:33.834Z,95
2016-08-22T07:03:35.248Z,100
2016-08-22T07:04:35.220Z,95
2016-08-22T07:05:35.932Z,90
2016-08-22T07:06:35.218Z,75
2016-08-22T07:07:35.209Z,70
2016-08-22T07:08:35.196Z,70
2016-08-22T07:09:35.181Z,70
2016-08-22T07:10:35.881Z,65
2016-08-22T07:11:35.178Z,60
2016-08-22T07:12:34.446Z,55
2016-08-22T07:13:35.148Z,60
2016-08-22T07:14:35.842Z,60
2016-08-22T07:15:35.143Z,60
2016-08-22T07:16:34.411Z,65
2016-08-22T07:17:35.831Z,75
2016-08-22T07:18:34.389Z,80
2016-08-22T07:19:34.389Z,85
2016-08-22T07:20:34.371Z,85
2016-08-22T07:21:33.661Z,80
2016-08-22T07:22:35.060Z,80
2016-08-22T07:23:34.346Z,80
2016-08-22T07:24:33.623Z,85
2016-08-22T07:25:33.630Z,85
2016-08-22T07:26:33.611Z,85
2016-08-22T07:27:33.613Z,85
2016-08-22T07:28:35.013Z,90
2016-08-22T07:29:34.995Z,90
2016-08-22T07:30:34.978Z,85
2016-08-22T07:31:35.693Z,80
2016-08-22T07:32:34.968Z,75
2016-08-22T07:33:35.666Z,65
2016-08-22T07:34:34.246Z,60
2016-08-22T07:35:34.234Z,65
2016-08-22T07:36:34.227Z,70
2016-08-22T07:37:34.220Z,70
2016-08-22T07:38:34.241Z,65
2016-08-22T07:39:33.504Z,60
2016-08-22T07:40:35.617Z,60
2016-08-22T07:41:34.886Z,65
2016-08-22T07:42:34.881Z,65
2016-08-22T07:43:34.161Z,75
2016-08-22T07:44:35.564Z,70
2016-08-22T07:45:34.137Z,70
2016-08-22T07:46:33.425Z,70
2016-08-22T07:47:33.414Z,70
2016-08-22T07:48:34.827Z,65
2016-08-22T07:49:34.813Z,70
2016-08-22T07:50:34.806Z,65
2016-08-22T07:51:34.298Z,65
2016-08-22T07:52:35.484Z,65
2016-08-22T07:53:35.496Z,65
2016-08-22T07:54:34.056Z,70
2016-08-22T07:55:34.045Z,75
2016-08-22T07:56:34.746Z,80
2016-08-22T07:57:34.049Z,75
2016-08-22T07:58:33.356Z,85
2016-08-22T07:59:36.150Z,80
2016-08-22T08:00:34.015Z,90
2016-08-22T08:01:35.419Z,95
2016-08-22T08:02:33.986Z,95
2016-08-22T08:03:33.293Z,100
2016-08-22T08:04:33.272Z,100
2016-08-22T08:05:35.377Z,105
2016-08-22T08:06:34.659Z,105
2016-08-22T08:07:34.655Z,100
2016-08-22T08:08:33.938Z,105
2016-08-22T08:09:34.638Z,105
2016-08-22T08:10:34.642Z,105
2016-08-22T08:11:33.203Z,115
2016-08-22T08:12:34.615Z,115
2016-08-22T08:13:33.890Z,120
2016-08-22T08:14:35.302Z,140
2016-08-22T08:15:35.277Z,140
2016-08-22T08:16:33.155Z,125
2016-08-22T08:17:35.267Z,110
2016-08-22T08:18:34.552Z,120
2016-08-22T08:19:35.255Z,125
2016-08-22T08:20:33.827Z,120
2016-08-22T08:21:33.817Z,120
2016-08-22T08:22:33.803Z,120
2016-08-22T08:23:33.803Z,115
2016-08-22T08:24:34.497Z,120
2016-08-22T08:25:34.498Z,125
2016-08-22T08:26:34.489Z,130
2016-08-22T08:27:34.485Z,130
2016-08-22T08:28:33.761Z,130
2016-08-22T08:29:34.456Z,125
2016-08-22T08:30:34.451Z,135
2016-08-22T08:31:33.735Z,135
2016-08-22T08:32:33.728Z,145
2016-08-22T08:33:35.131Z,140
2016-08-22T08:34:34.409Z,125
2016-08-22T08:35:34.400Z,125
2016-08-22T08:36:32.979Z,115
2016-08-22T08:37:34.393Z,100
2016-08-22T08:38:33.663Z,105
2016-08-22T08:39:34.374Z,95
2016-08-22T08:40:34.362Z,85
2016-08-22T08:41:33.641Z,75
2016-08-22T08:42:34.349Z,80
2016-08-22T08:43:35.039Z,80
2016-08-22T08:44:34.318Z,85
2016-08-22T08:45:34.316Z,85
2016-08-22T08:46:34.315Z,90
2016-08-22T08:47:35.010Z,100
2016-08-22T08:48:33.573Z,100
2016-08-22T08:49:33.571Z,105
2016-08-22T08:50:32.856Z,110
2016-08-22T08:51:35.675Z,110
2016-08-22T08:52:34.963Z,110
2016-08-22T08:53:34.240Z,140
2016-08-22T08:54:33.534Z,135
2016-08-22T08:55:34.931Z,120
2016-08-22T08:56:33.509Z,130
2016-08-22T08:57:33.511Z,135
2016-08-22T08:58:33.493Z,140
2016-08-22T08:59:32.780Z,145
2016-08-22T09:00:32.770Z,140
2016-08-22T09:01:34.167Z,125
2016-08-22T09:02:34.165Z,120
2016-08-22T09:03:34.153Z,110
2016-08-22T09:04:33.438Z,115
2016-08-22T09:05:34.855Z,105
2016-08-22T09:06:33.418Z,100
2016-08-22T09:07:34.115Z,110
2016-08-22T09:08:35.526Z,120
2016-08-22T09:09:34.105Z,105
2016-08-22T09:10:32.678Z,130
2016-08-22T09:11:32.693Z,145
2016-08-22T09:12:33.364Z,145
2016-08-22T09:13:34.063Z,150
2016-08-22T09:14:33.355Z,110
2016-08-22T09:15:33.351Z,95
2016-08-22T09:16:34.052Z,95
2016-08-22T09:17:34.033Z,85
2016-08-22T09:18:33.320Z,75
2016-08-22T09:19:32.595Z,80
2016-08-22T09:20:33.307Z,85
2016-08-22T09:21:34.007Z,70
2016-08-22T09:22:33.278Z,70
2016-08-22T09:23:33.986Z,65
2016-08-22T09:24:32.562Z,60
2016-08-22T09:25:33.255Z,55
2016-08-22T09:26:33.261Z,60
2016-08-22T09:27:35.361Z,55
2016-08-22T09:28:33.233Z,55
2016-08-22T09:29:33.930Z,55
2016-08-22T09:30:33.923Z,60
2016-08-22T09:31:33.908Z,60
2016-08-22T09:32:33.894Z,60
2016-08-22T09:33:33.886Z,60
2016-08-22T09:34:33.882Z,60
2016-08-22T09:35:33.179Z,60
2016-08-22T09:36:33.865Z,55
2016-08-22T09:37:32.439Z,60
2016-08-22T09:38:33.837Z,50
2016-08-22T09:39:33.140Z,55
2016-08-22T09:40:33.115Z,45
2016-08-22T09:41:33.101Z,45
2016-08-22T09:42:32.403Z,45
2016-08-22T09:43:32.380Z,45
2016-08-22T09:44:33.095Z,50
2016-08-22T09:45:33.778Z,50
2016-08-22T09:46:33.761Z,60
2016-08-22T09:47:33.765Z,60
2016-08-22T09:48:33.746Z,60
2016-08-22T09:49:33.748Z,50
2016-08-22T09:50:33.726Z,45
2016-08-22T09:51:33.931Z,45
2016-08-22T09:52:33.715Z,45
2016-08-22T09:53:33.000Z,50
2016-08-22T09:54:32.984Z,60
2016-08-22T09:55:32.974Z,55
2016-08-22T09:56:32.266Z,60
2016-08-22T09:57:32.971Z,65
2016-08-22T09:58:33.654Z,70
2016-08-22T09:59:34.349Z,65
2016-08-22T10:00:32.936Z,60
2016-08-22T10:01:33.629Z,60
2016-08-22T10:02:33.614Z,60
2016-08-22T10:03:32.907Z,60
2016-08-22T10:04:32.895Z,60
2016-08-22T10:05:32.173Z,60
2016-08-22T10:06:32.171Z,65
2016-08-22T10:07:32.884Z,60
2016-08-22T10:08:33.565Z,55
2016-08-22T10:09:32.851Z,55
2016-08-22T10:10:32.125Z,55
2016-08-22T10:11:32.820Z,65
2016-08-22T10:12:32.116Z,70
2016-08-22T10:13:33.518Z,80
2016-08-22T10:14:34.219Z,90
2016-08-22T10:15:34.215Z,90
2016-08-22T10:16:32.071Z,100
2016-08-22T10:17:32.766Z,110
2016-08-22T10:18:32.062Z,105
2016-08-22T10:19:32.751Z,90
2016-08-22T10:20:32.739Z,85
2016-08-22T10:21:33.447Z,85
2016-08-22T10:22:32.032Z,80
2016-08-22T10:23:32.714Z,85
2016-08-22T10:24:32.701Z,90
2016-08-22T10:25:33.406Z,85
2016-08-22T10:26:32.697Z,85
2016-08-22T10:27:31.979Z,105
2016-08-22T10:28:32.670Z,105
2016-08-22T10:29:31.956Z,120
2016-08-22T10:30:32.668Z,130
2016-08-22T10:31:31.930Z,130
2016-08-22T10:32:33.340Z,135
2016-08-22T10:33:32.623Z,135
2016-08-22T10:34:33.319Z,115
2016-08-22T10:35:33.311Z,100
2016-08-22T10:36:33.301Z,100
2016-08-22T10:37:33.292Z,105
2016-08-22T10:38:32.578Z,115
2016-08-22T10:39:33.280Z,130
2016-08-22T10:40:31.848Z,130
2016-08-22T10:41:31.849Z,135
2016-08-22T10:42:32.549Z,125
2016-08-22T10:43:34.651Z,120
2016-08-22T10:44:32.529Z,115
2016-08-22T10:45:32.516Z,110
2016-08-22T10:46:32.513Z,95
2016-08-22T10:47:32.498Z,95
2016-08-22T10:48:32.493Z,100
2016-08-22T10:49:32.478Z,105
2016-08-22T10:50:33.183Z,105
2016-08-22T10:51:33.179Z,110
2016-08-22T10:52:31.753Z,115
2016-08-22T10:53:32.454Z,120
2016-08-22T10:54:33.158Z,115
2016-08-22T10:55:32.430Z,125
2016-08-22T10:56:31.714Z,135
2016-08-22T10:57:31.706Z,120
2016-08-22T10:58:32.403Z,105
2016-08-22T10:59:33.102Z,100
2016-08-22T11:00:33.097Z,95
2016-08-22T11:01:32.381Z,95
2016-08-22T11:02:32.373Z,95
2016-08-22T11:03:32.360Z,90
2016-08-22T11:04:32.357Z,80
2016-08-22T11:05:32.350Z,80
2016-08-22T11:06:32.332Z,75
2016-08-22T11:07:32.325Z,75
2016-08-22T11:08:33.734Z,80
2016-08-22T11:09:33.011Z,85
2016-08-22T11:10:32.304Z,100
2016-08-22T11:11:33.707Z,110
2016-08-22T11:12:31.577Z,115
2016-08-22T11:13:31.573Z,110
2016-08-22T11:14:33.681Z,110
2016-08-22T11:15:31.548Z,105
2016-08-22T11:16:32.946Z,120
2016-08-22T11:17:32.239Z,130
2016-08-22T11:18:32.939Z,130
2016-08-22T11:19:32.226Z,120
2016-08-22T11:20:32.212Z,120
2016-08-22T11:21:32.210Z,115
2016-08-22T11:22:32.901Z,110
2016-08-22T11:23:32.896Z,100
2016-08-22T11:24:32.185Z,90
2016-08-22T11:25:31.466Z,95
2016-08-22T11:26:32.170Z,95
2016-08-22T11:27:33.563Z,90
2016-08-22T11:28:32.144Z,90
2016-08-22T11:29:33.564Z,90
2016-08-22T11:30:32.125Z,80
2016-08-22T11:31:32.832Z,90
2016-08-22T11:32:33.528Z,80
2016-08-22T11:33:32.100Z,80
2016-08-22T11:34:32.102Z,100
2016-08-22T11:35:31.387Z,125
2016-08-22T11:36:32.077Z,130
2016-08-22T11:37:32.070Z,125
2016-08-22T11:38:32.771Z,125
2016-08-22T11:39:32.052Z,130
2016-08-22T11:40:32.750Z,130
2016-08-22T11:41:32.035Z,115
2016-08-22T11:42:32.747Z,105
2016-08-22T11:43:32.731Z,100
2016-08-22T11:44:32.011Z,105
2016-08-22T11:45:32.705Z,95
2016-08-22T11:46:33.413Z,105
2016-08-22T11:47:32.711Z,95
2016-08-22T11:48:32.678Z,95
2016-08-22T11:49:34.132Z,95
2016-08-22T11:50:31.962Z,85
2016-08-22T11:51:34.311Z,100
2016-08-22T11:52:33.382Z,100
2016-08-22T11:53:33.353Z,85
2016-08-22T11:54:31.934Z,90
2016-08-22T11:55:31.931Z,75
2016-08-22T11:56:33.373Z,85
2016-08-22T11:57:31.901Z,85
2016-08-22T11:58:31.913Z,95
2016-08-22T11:59:32.596Z,85
2016-08-22T12:00:32.588Z,80
2016-08-22T12:01:32.581Z,85
2016-08-22T12:02:31.864Z,95
2016-08-22T12:03:32.554Z,80
2016-08-22T12:04:31.843Z,90
2016-08-22T12:05:32.536Z,90
2016-08-22T12:06:31.122Z,85
2016-08-22T12:07:31.820Z,85
2016-08-22T12:08:31.103Z,70
2016-08-22T12:09:31.086Z,75
2016-08-22T12:10:31.815Z,75
2016-08-22T12:11:31.122Z,90
2016-08-22T12:12:31.771Z,85
2016-08-22T12:13:31.056Z,85
2016-08-22T12:14:32.471Z,100
2016-08-22T12:15:33.157Z,110
2016-08-22T12:16:31.036Z,115
2016-08-22T12:17:31.731Z,100
2016-08-22T12:18:31.733Z,85
2016-08-22T12:19:32.424Z,95
2016-08-22T12:20:33.121Z,95
2016-08-22T12:21:31.694Z,95
2016-08-22T12:22:30.982Z,100
2016-08-22T12:23:32.401Z,110
2016-08-22T12:24:31.671Z,110
2016-08-22T12:25:30.962Z,115
2016-08-22T12:26:31.658Z,110
2016-08-22T12:27:33.066Z,110
2016-08-22T12:28:30.934Z,105
2016-08-22T12:29:32.351Z,105
2016-08-22T12:30:31.626Z,105
2016-08-22T12:31:31.650Z,105
2016-08-22T12:32:31.604Z,105
2016-08-22T12:33:30.893Z,105
2016-08-22T12:34:32.311Z,100
2016-08-22T12:35:30.879Z,90
2016-08-22T12:36:32.276Z,85
2016-08-22T12:37:30.860Z,80
2016-08-22T12:38:30.875Z,75
2016-08-22T12:39:32.252Z,85
2016-08-22T12:40:30.847Z,90
2016-08-22T12:41:32.246Z,100
2016-08-22T12:42:31.521Z,100
2016-08-22T12:43:32.225Z,100
2016-08-22T12:44:32.220Z,100
2016-08-22T12:45:31.509Z,115
2016-08-22T12:46:30.785Z,125
2016-08-22T12:47:32.210Z,105
2016-08-22T12:48:32.186Z,115
2016-08-22T12:49:32.886Z,125
2016-08-22T12:50:33.594Z,125
2016-08-22T12:51:32.158Z,120
2016-08-22T12:52:32.861Z,140
2016-08-22T12:53:31.442Z,140
2016-08-22T12:54:32.885Z,135
2016-08-22T12:55:31.421Z,135
2016-08-22T12:56:32.115Z,130
2016-08-22T12:57:32.146Z,135
2016-08-22T12:58:31.411Z,130
2016-08-22T12:59:32.843Z,130
2016-08-22T13:00:33.510Z,150
2016-08-22T13:01:32.082Z,160
2016-08-22T13:02:32.776Z,130
2016-08-22T13:03:33.471Z,115
2016-08-22T13:04:31.374Z,125
2016-08-22T13:05:31.353Z,140
2016-08-22T13:06:32.751Z,140
2016-08-22T13:07:32.733Z,165
2016-08-22T13:08:32.049Z,180
2016-08-22T13:09:31.321Z,175
2016-08-22T13:10:32.013Z,145
2016-08-22T13:11:32.011Z,145
2016-08-22T13:12:32.303Z,140
2016-08-22T13:13:31.990Z,130
2016-08-22T13:14:31.265Z,120
2016-08-22T13:15:31.964Z,130
2016-08-22T13:16:30.543Z,135
2016-08-22T13:17:32.702Z,110
2016-08-22T13:18:33.389Z,100
2016-08-22T13:19:31.970Z,110
2016-08-22T13:20:31.225Z,110
2016-08-22T13:21:31.225Z,115
2016-08-22T13:22:33.340Z,125
2016-08-22T13:23:31.930Z,130
2016-08-22T13:24:31.186Z,125
2016-08-22T13:25:31.890Z,120
2016-08-22T13:26:32.595Z,130
2016-08-22T13:27:31.886Z,125
2016-08-22T13:28:32.586Z,130
2016-08-22T13:29:32.589Z,110
2016-08-22T13:30:32.556Z,120
2016-08-22T13:31:31.137Z,115
2016-08-22T13:32:31.136Z,115
2016-08-22T13:33:31.115Z,120
2016-08-22T13:34:31.122Z,100
2016-08-22T13:35:31.103Z,100
2016-08-22T13:36:31.311Z,85
2016-08-22T13:37:32.506Z,75
2016-08-22T13:38:32.499Z,70
2016-08-22T13:39:31.799Z,55
2016-08-22T13:40:33.188Z,50
2016-08-22T13:41:30.355Z,45
2016-08-22T13:42:32.459Z,45
2016-08-22T13:43:31.040Z,50
2016-08-22T13:44:31.035Z,50
2016-08-22T13:45:32.439Z,50
2016-08-22T13:46:31.031Z,55
2016-08-22T13:47:31.005Z,55
2016-08-22T13:48:31.701Z,55
2016-08-22T13:49:30.987Z,55
2016-08-22T13:50:32.387Z,60
2016-08-22T13:51:31.885Z,65
2016-08-22T13:52:30.258Z,70
2016-08-22T13:53:31.661Z,70
2016-08-22T13:54:30.956Z,80
2016-08-22T13:55:30.945Z,85
2016-08-22T13:56:30.937Z,100
2016-08-22T13:57:30.240Z,105
2016-08-22T13:58:30.926Z,100
2016-08-22T13:59:32.332Z,90
2016-08-22T14:00:30.909Z,85
2016-08-22T14:01:30.897Z,80
2016-08-22T14:02:32.320Z,75
2016-08-22T14:03:31.611Z,65
2016-08-22T14:04:31.592Z,65
2016-08-22T14:05:32.980Z,75
2016-08-22T14:06:31.579Z,80
2016-08-22T14:07:32.262Z,90
2016-08-22T14:08:31.551Z,85
2016-08-22T14:09:31.546Z,75
2016-08-22T14:10:31.537Z,85
2016-08-22T14:11:32.954Z,80
2016-08-22T14:12:32.932Z,85
2016-08-22T14:13:30.095Z,100
2016-08-22T14:14:32.223Z,105
2016-08-22T14:15:30.808Z,135
2016-08-22T14:16:30.075Z,140
2016-08-22T14:17:31.487Z,150
2016-08-22T14:18:32.185Z,155